Nearby METAR Reports

 

EDNY - Friedrichshafen, Germany
Distance from station: ONO 32km
aktuell: 20.02.2020 00:20
geschlossene Wolkendecke
geschlossene Wolkendecke
 Wind von NO
Wind: NO 6 km/h
Temperatur: 0°C
Taupunkt: -2°C
Luftfeuchte: 87%
Luftdruck: 1026 hPa
Clouds: geschlossene Wolkendecke
Visibility: 10 km
Cloud details: Few Clouds 1920 m
teilweise bewölkt 2164 m
geschlossene Wolkendecke 4267 m
2020/02/19 23:20 EDNY 192320Z AUTO 05003KT 9999 // FEW063/// SCT071/// OVC140/// M00/M02 Q1026
LSZR - Rheineck/Altenrh, Switzerland
Distance from station: OSO 37km
aktuell: 20.02.2020 00:20
stark bewölkt
stark bewölkt
 Wind von SW
Wind: SW 7 km/h
Temperatur: 5°C
gefühlte Temperatur: 3°C
Taupunkt: -1°C
Luftfeuchte: 66%
Luftdruck: 1026 hPa
Clouds: stark bewölkt
Visibility: 10 km
Cloud details: stark bewölkt 2286 m
2020/02/19 23:20 LSZR 192320Z AUTO 22004KT 160V280 9999 BKN075 05/M01 Q1026
LSMD - Dubendorf, Switzerland
Distance from station: SW 40km
aktuell: 20.02.2020 00:20
stark bewölkt
stark bewölkt
 Wind von SSW
Wind: SSW 7 km/h
Temperatur: 4°C
gefühlte Temperatur: 2°C
Taupunkt: -1°C
Luftfeuchte: 70%
Luftdruck: 1026 hPa
Clouds: stark bewölkt
Visibility: 10 km
Cloud details: Few Clouds 2134 m
stark bewölkt 3962 m
2020/02/19 23:20 LSMD 192320Z AUTO 21004KT 170V250 9999NDV FEW070 BKN130 04/M01 Q1026 RMK
 
LSZH - Zurich-Kloten (a, Switzerland
Distance from station: WSW 44km
aktuell: 20.02.2020 00:20
klar
klar
 Wind von SSW
Wind: SSW 7 km/h
Temperatur: 3°C
gefühlte Temperatur: 1°C
Taupunkt: -1°C
Luftfeuchte: 75%
Luftdruck: 1026 hPa
Zusammenfassung: klar
Visibility: greater than 10 km
2020/02/19 23:20 LSZH 192320Z 20004KT CAVOK 03/M01 Q1026 NOSIG
LOIH - Hohenems-Dornbir, Austria
Distance from station: OSO 51km
aktuell: 31.10.2016 17:00
NOT Current
geschlossene Wolkendecke
geschlossene Wolkendecke
 Wind von calm
Wind: Windstill
Temperatur: 10°C
Taupunkt: 9°C
Luftfeuchte: 94%
Luftdruck: 1026 hPa
Clouds: geschlossene Wolkendecke
Cloud details: geschlossene Wolkendecke 305 m
2016/10/31 16:00 LOIH 311600Z 00000KT 10KM OVC010ST 10/09 Q1026 RMK OVC
LSME - Emmen, Switzerland
Distance from station: SW 82km
aktuell: 20.02.2020 00:20
stark bewölkt
stark bewölkt
 Wind von W
Wind: W 6 km/h
Temperatur: 3°C
Taupunkt: 0°C
Luftfeuchte: 81%
Luftdruck: 1027 hPa
Clouds: stark bewölkt
Visibility: 10 km
Cloud details: stark bewölkt 3353 m
2020/02/19 23:20 LSME 192320Z AUTO 26003KT 240V300 9999NDV BKN110 03/00 Q1027 RMK
 
LSZC - Buochs, Switzerland
Distance from station: SW 89km
aktuell: 20.02.2020 00:20
geschlossene Wolkendecke
geschlossene Wolkendecke
 Wind von SW
Wind: SW 6 km/h
Temperatur: 2°C
Taupunkt: 0°C
Luftfeuchte: 87%
Luftdruck: 1027 hPa
Clouds: geschlossene Wolkendecke
Visibility: 10 km
Cloud details: Few Clouds 2896 m
geschlossene Wolkendecke 3353 m
2020/02/19 23:20 LSZC 192320Z AUTO 22003KT 9999 FEW095 OVC110 02/00 Q1027
ETHL - Laupheim (ger-Ar, Germany
Distance from station: NO 92km
aktuell: 20.02.2020 00:20
stark bewölkt
stark bewölkt
 Wind von SW
Wind: SW 9 km/h
Temperatur: 1°C
gefühlte Temperatur: -2°C
Taupunkt: -2°C
Luftfeuchte: 81%
Luftdruck: 1024 hPa
Clouds: stark bewölkt
Visibility: 10 km
Cloud details: Few Clouds 1219 m
stark bewölkt 4267 m
2020/02/19 23:20 ETHL 192320Z 22005KT 9999 FEW040 BKN140 01/M02 Q1024 BLU
EDJA - Memmingen Allgau, Germany
Distance from station: ONO 95km
aktuell: 20.02.2020 00:20
stark bewölkt
stark bewölkt
 Wind von SW
Wind: SW 19 km/h
Temperatur: 1°C
gefühlte Temperatur: -4°C
Taupunkt: -2°C
Luftfeuchte: 81%
Luftdruck: 1025 hPa
Clouds: stark bewölkt
Visibility: 10 km
Cloud details: stark bewölkt 4267 m
2020/02/19 23:20 EDJA 192320Z AUTO 22010KT 9999 // BKN140/// 01/M02 Q1025
 
LSMA - Alpnach, Switzerland
Distance from station: SW 95km
aktuell: 20.02.2020 00:20
geschlossene Wolkendecke
geschlossene Wolkendecke
 Wind von S
Wind: S 6 km/h
Temperatur: 1°C
Taupunkt: 1°C
Luftfeuchte: 100%
Luftdruck: 1027 hPa
Clouds: geschlossene Wolkendecke
Visibility: 10 km
Cloud details: geschlossene Wolkendecke 3353 m
2020/02/19 23:20 LSMA 192320Z AUTO 18003KT 9999NDV OVC110 01/01 Q1027 RMK